Time;durP1;ratioP1;P1;durP2;ratioP2;P2;SDS_P1;SDS_P2;PMS_P1;PMS_P2;Temp;Humidity;BMP_temperature;BMP_pressure;BME280_temperature;BME280_humidity;BME280_pressure;Samples;Min_cycle;Max_cycle;Signal;HPM_P1;HPM_P2
2021/03/16 00:01:23;;;;;;;25.67;17.30;;;5.00;99.90;;;;;;5110174;28;20600;-73
2021/03/16 00:03:50;;;;;;;34.53;18.10;;;5.00;99.90;;;;;;5100423;28;20602;-72
2021/03/16 00:06:17;;;;;;;27.73;16.67;;;5.00;99.90;;;;;;5097940;28;20260;-73
2021/03/16 00:08:44;;;;;;;27.17;16.63;;;5.00;99.90;;;;;;5103289;28;20611;-70
2021/03/16 00:11:11;;;;;;;30.27;17.63;;;5.00;99.90;;;;;;5108308;28;20236;-71
2021/03/16 00:13:37;;;;;;;27.87;16.33;;;4.90;99.90;;;;;;5104414;28;20649;-73
2021/03/16 00:16:04;;;;;;;26.83;16.93;;;5.00;99.90;;;;;;5105585;28;20204;-72
2021/03/16 00:18:30;;;;;;;27.67;17.07;;;5.00;99.90;;;;;;5104373;28;20286;-72
2021/03/16 00:21:06;;;;;;;29.27;17.90;;;5.00;99.90;;;;;;5109561;28;20678;-73
2021/03/16 00:23:32;;;;;;;25.80;16.60;;;5.00;99.90;;;;;;5101969;28;20279;-71
2021/03/16 00:25:59;;;;;;;28.07;17.53;;;5.00;99.90;;;;;;5099754;28;20232;-73
2021/03/16 00:28:26;;;;;;;29.40;17.93;;;5.00;99.90;;;;;;5102615;28;20299;-72
2021/03/16 00:30:53;;;;;;;26.37;17.40;;;5.00;99.90;;;;;;5084553;28;20231;-73
2021/03/16 00:33:19;;;;;;;26.47;16.60;;;5.00;99.90;;;;;;5105894;28;20216;-72
2021/03/16 00:35:46;;;;;;;30.70;17.80;;;5.00;99.90;;;;;;5101517;28;20216;-72
2021/03/16 00:38:12;;;;;;;27.17;17.77;;;5.00;99.90;;;;;;5105441;28;20220;-72
2021/03/16 00:40:38;;;;;;;25.97;17.53;;;5.00;99.90;;;;;;5105737;28;20235;-72
2021/03/16 00:43:05;;;;;;;29.50;17.50;;;5.10;99.90;;;;;;5100646;28;20232;-72
2021/03/16 00:45:32;;;;;;;27.47;17.37;;;5.00;99.90;;;;;;5107037;28;20211;-72
2021/03/16 00:47:58;;;;;;;28.90;18.20;;;5.00;99.90;;;;;;5101706;28;20206;-72
2021/03/16 00:50:25;;;;;;;26.40;17.70;;;5.00;99.90;;;;;;5103325;28;20209;-72
2021/03/16 00:52:51;;;;;;;29.00;18.63;;;5.00;99.90;;;;;;5103193;28;20268;-72
2021/03/16 00:55:17;;;;;;;36.90;20.80;;;5.00;99.90;;;;;;5106995;28;20283;-72
2021/03/16 00:57:44;;;;;;;37.33;20.97;;;5.00;99.90;;;;;;5106302;28;20236;-72
2021/03/16 01:00:13;;;;;;;36.67;22.83;;;5.00;99.90;;;;;;5105869;28;20205;-72
2021/03/16 01:02:39;;;;;;;34.60;22.73;;;5.00;99.90;;;;;;5101969;28;20238;-73
2021/03/16 01:05:07;;;;;;;41.23;22.67;;;4.90;99.90;;;;;;5095839;28;20193;-72
2021/03/16 01:07:33;;;;;;;35.30;22.50;;;4.90;99.90;;;;;;5103921;28;20239;-71
2021/03/16 01:09:59;;;;;;;36.33;22.10;;;4.90;99.90;;;;;;5106631;28;20806;-71
2021/03/16 01:12:26;;;;;;;38.40;22.20;;;4.80;99.90;;;;;;5103809;28;20255;-72
2021/03/16 01:14:52;;;;;;;39.47;25.10;;;4.80;99.90;;;;;;5097543;28;20260;-72
2021/03/16 01:17:21;;;;;;;46.43;27.63;;;4.80;99.90;;;;;;5101776;28;20211;-72
2021/03/16 01:19:47;;;;;;;49.47;27.97;;;4.80;99.90;;;;;;5106670;28;20268;-72
2021/03/16 01:22:14;;;;;;;45.60;28.03;;;4.70;99.90;;;;;;5105338;28;20217;-71
2021/03/16 01:24:40;;;;;;;42.27;23.50;;;4.70;99.90;;;;;;5101335;28;20260;-72
2021/03/16 01:27:07;;;;;;;37.50;23.97;;;4.60;99.90;;;;;;5098824;28;20649;-71
2021/03/16 01:29:33;;;;;;;37.77;23.87;;;4.50;99.90;;;;;;5104714;28;20687;-72
2021/03/16 01:32:00;;;;;;;34.70;22.87;;;4.50;99.90;;;;;;5105550;28;20207;-72
2021/03/16 01:34:27;;;;;;;40.20;22.70;;;4.40;99.90;;;;;;5100901;28;20236;-72
2021/03/16 01:36:53;;;;;;;38.27;23.93;;;4.30;99.90;;;;;;5100819;28;20813;-72
2021/03/16 01:39:20;;;;;;;44.93;25.87;;;4.20;99.90;;;;;;5108902;28;20243;-72
2021/03/16 01:41:46;;;;;;;41.67;26.23;;;4.10;99.90;;;;;;5106086;28;20242;-72
2021/03/16 01:44:12;;;;;;;42.77;26.70;;;4.00;99.90;;;;;;5106301;28;20208;-71
2021/03/16 01:46:40;;;;;;;46.60;26.23;;;3.90;99.90;;;;;;5102995;28;20211;-71
2021/03/16 01:49:06;;;;;;;45.40;27.63;;;3.90;99.90;;;;;;5101290;28;20216;-72
2021/03/16 01:51:33;;;;;;;50.57;29.90;;;3.80;99.90;;;;;;5106763;28;20242;-72
2021/03/16 01:54:00;;;;;;;45.80;27.07;;;3.70;99.90;;;;;;5079553;28;20231;-72
2021/03/16 01:56:29;;;;;;;45.93;27.87;;;3.70;99.90;;;;;;5104376;28;20225;-73
2021/03/16 01:58:56;;;;;;;47.33;29.27;;;3.70;99.90;;;;;;5102642;28;20649;-72
2021/03/16 02:01:23;;;;;;;47.13;28.53;;;3.70;99.90;;;;;;5103047;28;20325;-73
2021/03/16 02:03:51;;;;;;;43.27;26.37;;;3.70;99.90;;;;;;5102184;28;20195;-74
2021/03/16 02:06:25;;;;;;;47.37;28.13;;;3.80;99.90;;;;;;5102403;28;20226;-74
2021/03/16 02:09:03;;;;;;;45.77;26.43;;;3.80;99.90;;;;;;5105284;28;20321;-74
2021/03/16 02:11:37;;;;;;;50.93;28.93;;;3.80;99.90;;;;;;5102678;28;20210;-74
2021/03/16 02:14:10;;;;;;;44.47;26.40;;;3.90;99.90;;;;;;5100489;28;20766;-74
2021/03/16 02:16:41;;;;;;;48.67;27.17;;;3.90;99.90;;;;;;5102366;28;20264;-74
2021/03/16 02:19:19;;;;;;;43.10;27.40;;;3.90;99.90;;;;;;5101304;28;20206;-73
2021/03/16 02:21:48;;;;;;;44.33;26.80;;;3.90;99.90;;;;;;5101862;28;20208;-74
2021/03/16 02:24:27;;;;;;;40.77;25.97;;;3.90;99.90;;;;;;5097986;28;20724;-74
2021/03/16 02:27:07;;;;;;;42.47;26.87;;;3.90;99.90;;;;;;5100073;28;20288;-73
2021/03/16 02:29:38;;;;;;;44.17;26.43;;;3.90;99.90;;;;;;5105287;28;20203;-74
2021/03/16 02:32:09;;;;;;;39.43;25.97;;;3.90;99.90;;;;;;5098416;28;20214;-74
2021/03/16 02:34:36;;;;;;;40.97;26.00;;;3.90;99.90;;;;;;5095168;28;20281;-74
2021/03/16 02:37:04;;;;;;;42.03;25.97;;;3.90;99.90;;;;;;5102939;28;20603;-75
2021/03/16 02:39:32;;;;;;;38.90;25.43;;;3.90;99.90;;;;;;5102459;28;20203;-73
2021/03/16 02:42:01;;;;;;;47.00;27.17;;;3.90;99.90;;;;;;5106784;28;20627;-74
2021/03/16 02:44:28;;;;;;;44.43;25.90;;;3.90;99.90;;;;;;5098696;28;20203;-73
2021/03/16 02:46:57;;;;;;;44.07;25.97;;;3.90;99.90;;;;;;5107480;28;20294;-74
2021/03/16 02:49:24;;;;;;;41.07;24.93;;;3.90;99.90;;;;;;5103990;28;20207;-74
2021/03/16 02:51:52;;;;;;;41.90;26.93;;;3.90;99.90;;;;;;5102475;28;20237;-75
2021/03/16 02:54:20;;;;;;;41.77;25.60;;;4.00;99.90;;;;;;5104078;28;20227;-73
2021/03/16 02:56:50;;;;;;;39.70;25.70;;;4.00;99.90;;;;;;5100274;28;20287;-76
2021/03/16 02:59:17;;;;;;;47.53;26.77;;;3.90;99.90;;;;;;5100648;28;20287;-74
2021/03/16 03:01:46;;;;;;;43.47;25.67;;;3.90;99.90;;;;;;5098693;28;20681;-74
2021/03/16 03:04:15;;;;;;;41.63;25.40;;;3.90;99.90;;;;;;5098080;28;20296;-74
2021/03/16 03:06:42;;;;;;;42.53;25.03;;;4.00;99.90;;;;;;5101143;28;20218;-74
2021/03/16 03:09:12;;;;;;;45.23;26.37;;;4.00;99.90;;;;;;5107799;28;20204;-73
2021/03/16 03:11:40;;;;;;;41.70;25.47;;;3.90;99.90;;;;;;5101121;28;20724;-74
2021/03/16 03:14:09;;;;;;;41.83;25.47;;;3.90;99.90;;;;;;5102884;28;20234;-75
2021/03/16 03:16:35;;;;;;;42.37;25.93;;;3.90;99.90;;;;;;5105709;28;20300;-74
2021/03/16 03:19:02;;;;;;;46.40;25.37;;;4.00;99.90;;;;;;5098200;28;20205;-74
2021/03/16 03:21:34;;;;;;;42.83;24.07;;;4.00;99.90;;;;;;5104760;28;20645;-74
2021/03/16 03:24:05;;;;;;;40.40;25.53;;;4.00;99.90;;;;;;5103302;28;20201;-73
2021/03/16 03:26:42;;;;;;;40.43;24.47;;;3.90;99.90;;;;;;5106864;28;20201;-74
2021/03/16 03:29:09;;;;;;;41.70;26.17;;;3.90;99.90;;;;;;5103571;28;20322;-73
2021/03/16 03:31:39;;;;;;;42.13;25.73;;;3.90;99.90;;;;;;5097156;28;20627;-74
2021/03/16 03:34:06;;;;;;;43.37;24.97;;;3.90;99.90;;;;;;5105769;28;20687;-73
2021/03/16 03:36:35;;;;;;;42.87;25.23;;;3.90;99.90;;;;;;5101671;28;20201;-74
2021/03/16 03:39:04;;;;;;;41.60;25.07;;;3.90;99.90;;;;;;5104221;28;20291;-74
2021/03/16 03:41:31;;;;;;;44.33;27.03;;;3.90;99.90;;;;;;5107100;28;20256;-74
2021/03/16 03:43:58;;;;;;;43.00;26.97;;;3.90;99.90;;;;;;5103753;28;20302;-74
2021/03/16 03:46:25;;;;;;;44.37;27.80;;;3.90;99.90;;;;;;5110450;28;20345;-74
2021/03/16 03:48:52;;;;;;;45.03;25.87;;;3.80;99.90;;;;;;5109047;28;20576;-74
2021/03/16 03:51:21;;;;;;;40.37;25.50;;;3.80;99.90;;;;;;5108564;28;20659;-74
2021/03/16 03:53:49;;;;;;;44.43;25.87;;;3.80;99.90;;;;;;5108563;28;20231;-75
2021/03/16 03:56:20;;;;;;;44.57;27.07;;;3.80;99.90;;;;;;5103379;28;20564;-74
2021/03/16 03:58:48;;;;;;;45.57;27.30;;;3.80;99.90;;;;;;5104327;28;20203;-74
2021/03/16 04:01:15;;;;;;;47.00;27.57;;;3.70;99.90;;;;;;5102952;28;20259;-75
2021/03/16 04:03:41;;;;;;;48.60;28.37;;;3.60;99.90;;;;;;5097927;28;20200;-74
2021/03/16 04:06:08;;;;;;;45.90;27.67;;;3.60;99.90;;;;;;5106555;28;20239;-74
2021/03/16 04:08:36;;;;;;;50.60;28.57;;;3.60;99.90;;;;;;5104393;28;20222;-74
2021/03/16 04:11:05;;;;;;;46.20;28.87;;;3.60;99.90;;;;;;5105060;28;20203;-74
2021/03/16 04:13:33;;;;;;;55.97;32.07;;;3.60;99.90;;;;;;5107816;28;20224;-74
2021/03/16 04:16:00;;;;;;;57.43;31.63;;;3.60;99.90;;;;;;5105046;28;20698;-74
2021/03/16 04:18:27;;;;;;;54.70;33.07;;;3.60;99.90;;;;;;5110943;28;20705;-74
2021/03/16 04:20:54;;;;;;;56.80;32.43;;;3.60;99.90;;;;;;5104257;28;20204;-73
2021/03/16 04:23:21;;;;;;;57.93;32.50;;;3.60;99.90;;;;;;5108561;28;20239;-74
2021/03/16 04:25:47;;;;;;;56.20;32.83;;;3.50;99.90;;;;;;5106823;28;20244;-74
2021/03/16 04:28:14;;;;;;;56.37;34.20;;;3.50;99.90;;;;;;5104824;28;20243;-74
2021/03/16 04:30:41;;;;;;;58.33;34.03;;;3.50;99.90;;;;;;5109384;28;20283;-74
2021/03/16 04:33:08;;;;;;;55.33;32.43;;;3.40;99.90;;;;;;5103773;28;20221;-74
2021/03/16 04:35:35;;;;;;;58.13;34.00;;;3.40;99.90;;;;;;5111694;28;20618;-73
2021/03/16 04:38:01;;;;;;;58.40;35.57;;;3.40;99.90;;;;;;5107001;28;20212;-74
2021/03/16 04:40:27;;;;;;;58.03;35.17;;;3.40;99.90;;;;;;5105236;28;20204;-75
2021/03/16 04:42:54;;;;;;;58.50;33.47;;;3.40;99.90;;;;;;5103052;28;20662;-74
2021/03/16 04:45:21;;;;;;;61.57;36.53;;;3.40;99.90;;;;;;5107394;28;20214;-73
2021/03/16 04:47:48;;;;;;;61.33;35.30;;;3.40;99.90;;;;;;5110801;28;20208;-74
2021/03/16 04:50:14;;;;;;;64.90;36.43;;;3.40;99.90;;;;;;5106288;28;20616;-75
2021/03/16 04:52:41;;;;;;;63.43;34.87;;;3.40;99.90;;;;;;5105214;28;20684;-75
2021/03/16 04:55:08;;;;;;;63.30;35.77;;;3.40;99.90;;;;;;5108382;28;20228;-72
2021/03/16 04:57:36;;;;;;;70.47;37.77;;;3.30;99.90;;;;;;5090604;28;20204;-74
2021/03/16 05:00:04;;;;;;;69.23;36.00;;;3.30;99.90;;;;;;5098821;28;20290;-73
2021/03/16 05:02:32;;;;;;;56.70;34.57;;;3.30;99.90;;;;;;5095327;28;20331;-74
2021/03/16 05:04:58;;;;;;;59.67;35.73;;;3.30;99.90;;;;;;5099235;28;20321;-75
2021/03/16 05:07:25;;;;;;;65.77;37.10;;;3.30;99.90;;;;;;5107125;28;20216;-74
2021/03/16 05:09:51;;;;;;;55.10;34.17;;;3.40;99.90;;;;;;5107558;28;20244;-74
2021/03/16 05:12:17;;;;;;;61.40;36.30;;;3.40;99.90;;;;;;5102489;28;20215;-74
2021/03/16 05:14:45;;;;;;;61.80;36.20;;;3.40;99.90;;;;;;5104675;28;20775;-73
2021/03/16 05:17:11;;;;;;;67.50;36.27;;;3.50;99.90;;;;;;5106693;28;20273;-74
2021/03/16 05:19:39;;;;;;;66.57;36.73;;;3.50;99.90;;;;;;5102557;28;20637;-74
2021/03/16 05:22:05;;;;;;;65.67;37.40;;;3.60;99.90;;;;;;5104831;28;20212;-73
2021/03/16 05:24:32;;;;;;;63.93;36.23;;;3.70;99.90;;;;;;5108023;28;20204;-73
2021/03/16 05:26:58;;;;;;;59.63;34.57;;;3.80;99.90;;;;;;5104323;28;20205;-74
2021/03/16 05:29:25;;;;;;;60.03;35.40;;;3.80;99.90;;;;;;5107154;28;20242;-74
2021/03/16 05:31:51;;;;;;;61.67;34.17;;;3.90;99.90;;;;;;5102145;28;20200;-74
2021/03/16 05:34:18;;;;;;;68.03;34.83;;;4.00;99.90;;;;;;5103846;28;20246;-75
2021/03/16 05:36:46;;;;;;;55.67;33.30;;;4.10;99.90;;;;;;5108717;28;20215;-74
2021/03/16 05:39:13;;;;;;;62.10;35.57;;;4.20;99.90;;;;;;5106487;28;20279;-74
2021/03/16 05:41:40;;;;;;;57.80;33.33;;;4.30;99.90;;;;;;5104817;28;20291;-75
2021/03/16 05:44:07;;;;;;;63.60;35.03;;;4.40;99.90;;;;;;5105873;28;20196;-75
2021/03/16 05:46:36;;;;;;;60.53;34.57;;;4.50;99.90;;;;;;5103601;28;20230;-73
2021/03/16 05:49:05;;;;;;;60.00;33.60;;;4.50;99.90;;;;;;5103548;28;20291;-74
2021/03/16 05:51:33;;;;;;;62.10;34.40;;;4.60;99.90;;;;;;5106702;28;20210;-75
2021/03/16 05:54:01;;;;;;;61.23;33.77;;;4.70;99.90;;;;;;5107993;28;20688;-75
2021/03/16 05:56:30;;;;;;;59.63;33.30;;;4.70;99.90;;;;;;5105380;28;20630;-75
2021/03/16 05:58:57;;;;;;;57.27;32.80;;;4.70;99.90;;;;;;5100313;28;20200;-74
2021/03/16 06:01:24;;;;;;;57.60;33.77;;;4.60;99.90;;;;;;5101144;28;20263;-74
2021/03/16 06:03:53;;;;;;;60.50;33.30;;;4.70;99.90;;;;;;5103916;28;20283;-75
2021/03/16 06:06:19;;;;;;;52.77;32.80;;;4.60;99.90;;;;;;5100881;28;20223;-75
2021/03/16 06:08:46;;;;;;;53.37;30.87;;;4.60;99.90;;;;;;5102736;28;20679;-76
2021/03/16 06:11:13;;;;;;;52.77;30.93;;;4.60;99.90;;;;;;5102997;28;20200;-74
2021/03/16 06:13:50;;;;;;;54.70;30.40;;;4.70;99.90;;;;;;5101951;28;20226;-74
2021/03/16 06:16:17;;;;;;;47.30;29.37;;;4.70;99.90;;;;;;5105438;28;20268;-75
2021/03/16 06:18:44;;;;;;;48.73;30.77;;;4.70;99.90;;;;;;5100548;28;20291;-75
2021/03/16 06:21:11;;;;;;;51.47;29.27;;;4.80;99.90;;;;;;5096935;28;20213;-74
2021/03/16 06:23:38;;;;;;;52.33;30.57;;;4.70;99.90;;;;;;5097291;28;20279;-74
2021/03/16 06:26:13;;;;;;;51.43;29.80;;;4.70;99.90;;;;;;5101806;28;20295;-76
2021/03/16 06:28:40;;;;;;;57.77;30.63;;;4.80;99.90;;;;;;5102988;28;20246;-75
2021/03/16 06:31:06;;;;;;;52.90;30.17;;;4.80;99.90;;;;;;5103234;28;20215;-74
2021/03/16 06:33:33;;;;;;;56.50;31.50;;;4.80;99.90;;;;;;5104437;28;20220;-74
2021/03/16 06:36:04;;;;;;;49.23;28.93;;;4.90;99.90;;;;;;5103415;28;20200;-75
2021/03/16 06:38:32;;;;;;;50.43;30.47;;;4.90;99.90;;;;;;5102139;28;20278;-75
2021/03/16 06:41:10;;;;;;;48.97;30.17;;;5.00;99.90;;;;;;5104957;28;20782;-74
2021/03/16 06:43:38;;;;;;;52.43;31.00;;;5.10;99.90;;;;;;5103228;28;20709;-74
2021/03/16 06:46:05;;;;;;;52.63;30.63;;;5.20;99.90;;;;;;5106361;28;20232;-75
2021/03/16 06:48:34;;;;;;;52.80;30.83;;;5.30;99.90;;;;;;5100853;28;20719;-75
2021/03/16 06:51:10;;;;;;;52.93;31.03;;;5.40;99.90;;;;;;5103026;28;20227;-74
2021/03/16 06:53:36;;;;;;;51.33;30.57;;;5.50;99.90;;;;;;5105160;28;20203;-74
2021/03/16 06:56:03;;;;;;;53.23;30.70;;;5.70;99.90;;;;;;5101783;28;20203;-76
2021/03/16 06:58:31;;;;;;;53.17;32.30;;;5.90;99.90;;;;;;5104214;28;20286;-74
2021/03/16 07:01:06;;;;;;;51.40;30.90;;;6.10;99.90;;;;;;5104251;28;20736;-76
2021/03/16 07:03:33;;;;;;;48.37;29.70;;;6.20;99.90;;;;;;5100032;28;20196;-74
2021/03/16 07:06:08;;;;;;;51.90;31.73;;;6.30;99.90;;;;;;5105379;28;20616;-74
2021/03/16 07:08:35;;;;;;;48.77;29.47;;;6.30;99.90;;;;;;5098276;28;20278;-75
2021/03/16 07:11:02;;;;;;;49.60;30.47;;;6.30;99.90;;;;;;5107628;28;20208;-76
2021/03/16 07:13:33;;;;;;;49.77;30.07;;;6.40;99.90;;;;;;5102726;28;20270;-75
2021/03/16 07:15:59;;;;;;;44.47;27.63;;;6.30;99.90;;;;;;5096664;28;20271;-74
2021/03/16 07:18:28;;;;;;;51.07;30.40;;;6.40;99.90;;;;;;5102340;28;20294;-75
2021/03/16 07:20:58;;;;;;;46.33;29.63;;;6.40;99.90;;;;;;5101611;28;20225;-75
2021/03/16 07:23:25;;;;;;;46.80;29.00;;;6.50;99.90;;;;;;5106698;28;20200;-75
2021/03/16 07:25:53;;;;;;;50.97;30.07;;;6.70;99.90;;;;;;5106815;28;20200;-75
2021/03/16 07:28:20;;;;;;;49.97;29.73;;;6.90;99.90;;;;;;5105799;28;20226;-75
2021/03/16 07:30:46;;;;;;;45.83;27.93;;;7.00;99.90;;;;;;5108027;28;20215;-75
2021/03/16 07:33:14;;;;;;;47.53;28.90;;;7.30;99.90;;;;;;5108956;28;20629;-74
2021/03/16 07:35:42;;;;;;;46.93;28.80;;;7.50;99.90;;;;;;5104426;28;20235;-73
2021/03/16 07:38:10;;;;;;;50.20;29.00;;;7.70;99.90;;;;;;5107407;28;20208;-76
2021/03/16 07:40:41;;;;;;;46.03;28.17;;;7.80;99.90;;;;;;5104232;28;20295;-75
2021/03/16 07:43:10;;;;;;;44.37;27.97;;;7.80;99.90;;;;;;5106873;28;20289;-77
2021/03/16 07:45:37;;;;;;;43.93;25.63;;;8.00;99.90;;;;;;5105117;28;20563;-76
2021/03/16 07:48:17;;;;;;;41.93;26.13;;;8.30;99.90;;;;;;5105284;28;20223;-74
2021/03/16 07:50:45;;;;;;;44.43;25.80;;;8.50;99.90;;;;;;5102599;28;20222;-75
2021/03/16 07:53:22;;;;;;;37.63;23.90;;;8.50;99.90;;;;;;5107092;28;20274;-75
2021/03/16 07:55:49;;;;;;;37.83;24.03;;;8.60;99.90;;;;;;5104825;28;20291;-74
2021/03/16 07:58:24;;;;;;;42.30;24.93;;;8.70;99.90;;;;;;5104900;28;20316;-75
2021/03/16 08:00:51;;;;;;;37.77;24.90;;;8.80;99.90;;;;;;5100070;28;20299;-73
2021/03/16 08:03:24;;;;;;;53.77;33.60;;;8.90;99.90;;;;;;5103041;28;20200;-75
2021/03/16 08:05:52;;;;;;;50.70;31.53;;;9.10;99.90;;;;;;5104047;28;20759;-77
2021/03/16 08:08:20;;;;;;;39.63;26.20;;;9.40;99.90;;;;;;5110877;28;20208;-74
2021/03/16 08:10:47;;;;;;;41.80;26.33;;;9.60;99.90;;;;;;5108314;28;20296;-74
2021/03/16 08:13:16;;;;;;;43.20;26.93;;;9.80;99.90;;;;;;5103878;28;20312;-75
2021/03/16 08:15:44;;;;;;;40.40;26.23;;;10.00;99.90;;;;;;5106308;28;20282;-77
2021/03/16 08:18:12;;;;;;;38.00;25.03;;;10.30;99.90;;;;;;5108805;28;20262;-76
2021/03/16 08:20:39;;;;;;;37.53;24.70;;;10.40;99.90;;;;;;5108635;28;20929;-75
2021/03/16 08:23:12;;;;;;;35.80;24.63;;;10.60;99.90;;;;;;5105215;28;20700;-73
2021/03/16 08:25:39;;;;;;;37.00;25.00;;;10.70;99.90;;;;;;5105018;28;20224;-76
2021/03/16 08:28:08;;;;;;;37.20;24.87;;;10.80;99.90;;;;;;5107631;28;20331;-75
2021/03/16 08:30:40;;;;;;;42.50;25.87;;;10.80;99.90;;;;;;5103917;28;20232;-75
2021/03/16 08:33:11;;;;;;;42.23;27.00;;;10.90;99.90;;;;;;5113278;28;20220;-80
2021/03/16 08:35:49;;;;;;;37.87;26.07;;;10.80;99.20;;;;;;5104285;28;20204;-79
2021/03/16 08:38:24;;;;;;;38.40;27.03;;;10.80;99.30;;;;;;5102392;28;20210;-80
2021/03/16 08:41:04;;;;;;;40.67;25.80;;;10.80;99.30;;;;;;5103352;28;20270;-77
2021/03/16 08:43:30;;;;;;;40.00;25.60;;;10.70;99.20;;;;;;5105129;28;20235;-77
2021/03/16 08:45:57;;;;;;;40.97;25.90;;;10.80;99.10;;;;;;5104402;28;20200;-75
2021/03/16 08:48:25;;;;;;;37.13;25.30;;;10.80;98.60;;;;;;5107969;28;20227;-79
2021/03/16 08:50:52;;;;;;;42.87;27.33;;;10.90;98.60;;;;;;5107856;28;20253;-77
2021/03/16 08:53:18;;;;;;;39.53;28.03;;;11.00;98.30;;;;;;5104798;28;20314;-76
2021/03/16 08:55:50;;;;;;;45.27;28.73;;;11.20;99.00;;;;;;5105596;28;20224;-79
2021/03/16 08:58:17;;;;;;;40.73;27.83;;;11.60;98.20;;;;;;5116497;28;20295;-79
2021/03/16 09:00:45;;;;;;;41.77;27.43;;;11.80;96.80;;;;;;5106522;28;20302;-77
2021/03/16 09:03:12;;;;;;;39.07;26.73;;;12.10;95.70;;;;;;5110370;28;20255;-78
2021/03/16 09:05:39;;;;;;;43.40;28.40;;;12.30;95.00;;;;;;5105932;28;20264;-79
2021/03/16 09:08:06;;;;;;;44.67;27.73;;;12.70;94.40;;;;;;5108567;28;20295;-77
2021/03/16 09:10:33;;;;;;;41.27;28.07;;;13.10;93.10;;;;;;5107902;28;20235;-77
2021/03/16 09:13:01;;;;;;;44.80;29.47;;;13.40;91.30;;;;;;5110515;28;20207;-78
2021/03/16 09:15:33;;;;;;;40.97;27.77;;;13.60;91.90;;;;;;5109629;28;20286;-80
2021/03/16 09:18:03;;;;;;;37.90;25.60;;;14.10;91.60;;;;;;5106620;28;20571;-76
2021/03/16 09:20:31;;;;;;;29.67;21.13;;;15.80;90.80;;;;;;5103534;28;20629;-79
2021/03/16 09:23:00;;;;;;;28.30;20.23;;;18.40;66.10;;;;;;5106278;28;20198;-81
2021/03/16 09:25:30;;;;;;;30.75;22.13;;;21.20;54.60;;;;;;5109220;28;20222;-76
2021/03/16 09:28:00;;;;;;;28.58;21.13;;;23.90;46.30;;;;;;5109875;28;20616;-77
2021/03/16 09:30:29;;;;;;;26.88;20.38;;;26.30;42.00;;;;;;5103399;28;20245;-75
2021/03/16 09:32:56;;;;;;;23.42;18.83;;;28.70;36.60;;;;;;5095647;28;20269;-76
2021/03/16 09:35:23;;;;;;;27.45;19.33;;;30.20;33.80;;;;;;5101270;28;20215;-77
2021/03/16 09:37:52;;;;;;;24.60;19.55;;;31.20;31.90;;;;;;5102951;28;20296;-76
2021/03/16 09:40:29;;;;;;;22.30;19.67;;;31.70;30.70;;;;;;5105650;28;20211;-78
2021/03/16 09:42:56;;;;;;;22.85;19.88;;;32.80;29.80;;;;;;5104717;28;20293;-76
2021/03/16 09:45:25;;;;;;;20.75;17.77;;;34.00;28.30;;;;;;5105269;28;20212;-74
2021/03/16 09:47:53;;;;;;;24.60;19.40;;;34.90;27.60;;;;;;5100821;28;20289;-76
2021/03/16 09:50:21;;;;;;;20.85;18.65;;;35.60;26.90;;;;;;5102183;28;20260;-74
2021/03/16 09:52:48;;;;;;;20.00;17.60;;;36.20;26.50;;;;;;5106961;28;20634;-75
2021/03/16 09:55:17;;;;;;;23.75;19.00;;;36.00;25.90;;;;;;5106354;28;20204;-74
2021/03/16 09:57:48;;;;;;;20.70;18.20;;;36.10;25.50;;;;;;5105182;28;20196;-74
2021/03/16 10:00:16;;;;;;;21.85;16.90;;;36.50;25.50;;;;;;5103016;28;20295;-74
2021/03/16 10:02:44;;;;;;;19.88;17.02;;;36.50;24.30;;;;;;5098705;28;20238;-74
2021/03/16 10:05:13;;;;;;;22.58;18.17;;;36.30;24.10;;;;;;5104827;28;20207;-76
2021/03/16 10:07:40;;;;;;;22.83;20.40;;;36.80;24.50;;;;;;5098483;28;20204;-75
2021/03/16 10:10:11;;;;;;;20.85;18.60;;;37.40;24.30;;;;;;5096932;28;20283;-72
2021/03/16 10:12:37;;;;;;;18.98;16.98;;;38.10;24.10;;;;;;5101586;28;20569;-72
2021/03/16 10:15:06;;;;;;;17.95;16.08;;;38.80;23.70;;;;;;5103091;28;20591;-73
2021/03/16 10:17:33;;;;;;;18.52;16.38;;;39.40;23.40;;;;;;5102626;28;20293;-74
2021/03/16 10:20:02;;;;;;;17.45;15.05;;;39.80;23.00;;;;;;5103057;28;20285;-72
2021/03/16 10:22:30;;;;;;;15.93;13.85;;;39.30;22.90;;;;;;5105339;28;20208;-71
2021/03/16 10:24:58;;;;;;;18.55;12.88;;;38.00;22.60;;;;;;5102678;28;20201;-72
2021/03/16 10:27:28;;;;;;;18.48;14.65;;;35.70;23.40;;;;;;5100287;28;20296;-72
2021/03/16 10:29:55;;;;;;;16.00;14.25;;;33.30;24.70;;;;;;5104417;28;20657;-72
2021/03/16 10:32:21;;;;;;;17.05;14.13;;;31.10;26.70;;;;;;5104495;28;20299;-74
2021/03/16 10:34:48;;;;;;;19.40;14.68;;;29.20;27.30;;;;;;5099828;28;20316;-71
2021/03/16 10:37:22;;;;;;;17.80;14.93;;;27.80;29.10;;;;;;5097862;28;20688;-72
2021/03/16 10:39:50;;;;;;;21.15;15.98;;;27.10;29.60;;;;;;5098844;28;20236;-74
2021/03/16 10:42:17;;;;;;;17.35;14.55;;;26.80;30.30;;;;;;5098804;28;20234;-72
2021/03/16 10:44:43;;;;;;;18.33;13.27;;;27.00;30.40;;;;;;5099227;28;20252;-72
2021/03/16 10:47:10;;;;;;;15.95;12.10;;;26.70;30.00;;;;;;5101167;28;20200;-74
2021/03/16 10:49:37;;;;;;;14.75;11.10;;;26.70;30.40;;;;;;5103219;28;20208;-73
2021/03/16 10:52:04;;;;;;;19.67;12.82;;;27.20;29.80;;;;;;5100781;28;20207;-74
2021/03/16 10:54:31;;;;;;;13.73;12.30;;;27.80;29.40;;;;;;5099676;28;20297;-74
2021/03/16 10:56:58;;;;;;;14.15;12.25;;;27.80;28.60;;;;;;5100269;28;20207;-73
2021/03/16 10:59:25;;;;;;;18.65;12.70;;;27.30;29.10;;;;;;5095519;28;20287;-75
2021/03/16 11:01:52;;;;;;;14.88;12.30;;;27.80;29.10;;;;;;5098890;28;20335;-73
2021/03/16 11:04:19;;;;;;;15.02;11.90;;;27.20;28.70;;;;;;5101677;28;20200;-78
2021/03/16 11:06:45;;;;;;;15.68;12.98;;;26.00;29.30;;;;;;5096339;28;20272;-76
2021/03/16 11:09:12;;;;;;;18.95;12.43;;;25.00;30.40;;;;;;5102818;28;20318;-73
2021/03/16 11:11:39;;;;;;;20.80;13.60;;;24.50;31.40;;;;;;5106746;28;20223;-76
2021/03/16 11:14:09;;;;;;;17.15;11.02;;;23.90;31.70;;;;;;5099793;28;20227;-77
2021/03/16 11:16:36;;;;;;;17.15;11.75;;;23.20;32.00;;;;;;5100177;28;20204;-74
2021/03/16 11:19:03;;;;;;;16.75;11.93;;;22.30;32.50;;;;;;5103537;28;20227;-73
2021/03/16 11:21:29;;;;;;;12.35;10.77;;;21.80;33.00;;;;;;5100549;28;20243;-74
2021/03/16 11:23:56;;;;;;;14.82;11.90;;;21.20;33.20;;;;;;5095174;28;20205;-73
2021/03/16 11:26:23;;;;;;;16.65;12.43;;;21.40;36.20;;;;;;5101028;28;20207;-74
2021/03/16 11:28:49;;;;;;;17.40;11.75;;;22.60;34.20;;;;;;5099136;28;20710;-73
2021/03/16 11:31:16;;;;;;;16.40;13.00;;;23.30;32.90;;;;;;5102485;28;20208;-74
2021/03/16 11:33:43;;;;;;;13.07;11.38;;;23.50;32.40;;;;;;5102227;28;20223;-73
2021/03/16 11:36:09;;;;;;;15.02;10.80;;;23.40;32.60;;;;;;5103364;28;20289;-73
2021/03/16 11:38:36;;;;;;;13.90;10.25;;;23.00;32.30;;;;;;5102802;28;20209;-74
2021/03/16 11:41:03;;;;;;;11.88;10.40;;;22.70;32.50;;;;;;5092507;28;20209;-73
2021/03/16 11:43:32;;;;;;;11.70;10.07;;;22.30;32.50;;;;;;5101090;28;20322;-73
2021/03/16 11:45:58;;;;;;;14.30;9.85;;;22.10;33.80;;;;;;5098011;28;20211;-74
2021/03/16 11:48:26;;;;;;;14.02;10.45;;;22.20;32.50;;;;;;5101080;28;20228;-73
2021/03/16 11:50:52;;;;;;;15.30;11.52;;;21.90;32.30;;;;;;5098815;28;20208;-74
2021/03/16 11:53:18;;;;;;;16.10;10.60;;;23.00;34.30;;;;;;5100953;28;20335;-74
2021/03/16 11:55:45;;;;;;;14.43;11.25;;;25.10;31.60;;;;;;5102841;28;20308;-74
2021/03/16 11:58:12;;;;;;;16.77;10.63;;;26.90;30.60;;;;;;5099399;28;20220;-75
2021/03/16 12:00:38;;;;;;;14.63;10.48;;;28.40;29.40;;;;;;5096352;28;20623;-73
2021/03/16 12:03:05;;;;;;;16.58;11.90;;;28.40;28.40;;;;;;5096073;28;20273;-73
2021/03/16 12:05:32;;;;;;;15.50;11.48;;;27.60;29.60;;;;;;5100721;28;20298;-74
2021/03/16 12:08:00;;;;;;;14.68;11.20;;;27.00;29.30;;;;;;5105875;28;20283;-74
2021/03/16 12:10:27;;;;;;;14.80;12.10;;;26.10;29.30;;;;;;5088204;28;20605;-76
2021/03/16 12:12:53;;;;;;;17.55;12.77;;;24.60;30.20;;;;;;5100408;28;20204;-72
2021/03/16 12:15:21;;;;;;;13.65;10.68;;;23.80;31.90;;;;;;5099510;28;20264;-74
2021/03/16 12:17:47;;;;;;;15.45;12.00;;;24.20;32.80;;;;;;5101847;28;20207;-73
2021/03/16 12:20:15;;;;;;;14.00;10.30;;;23.50;31.10;;;;;;5103632;28;20603;-74
2021/03/16 12:22:43;;;;;;;11.52;8.88;;;22.20;31.90;;;;;;5107890;28;20197;-73
2021/03/16 12:25:10;;;;;;;15.30;10.38;;;20.80;32.70;;;;;;5101337;28;20260;-75
2021/03/16 12:27:36;;;;;;;14.20;10.48;;;19.50;34.10;;;;;;5106738;28;20216;-75
2021/03/16 12:30:04;;;;;;;13.77;11.10;;;18.40;35.50;;;;;;5114833;28;20208;-76
2021/03/16 12:32:31;;;;;;;23.03;12.13;;;17.40;37.00;;;;;;5108276;28;20287;-77
2021/03/16 12:34:58;;;;;;;17.60;12.40;;;16.70;38.60;;;;;;5110865;28;20269;-76
2021/03/16 12:37:24;;;;;;;22.50;10.50;;;15.80;40.00;;;;;;5107254;28;20238;-75